KSYN/SYN METAR and TAF weather

Enter ICAO airport designator
Station Type Date Time Source
KSYN METAR 2018/12/10 02:15 UTC NOAA

KSYN 100215Z AUTO 22006KT 7SM CLR M12/M14 A3028 RMK AO2 T11231137


Station Type Date Time Source
KSYN Decoded METAR 2018/12/10 02:15 UTC NOAA

Stanton, Stanton Airfield, MN, United States (KSYN) 44-28-31N 093-00-58W
Dec 09, 2018 - 09:15 PM EST / 2018.12.10 0215 UTC
Wind: from the SW (220 degrees) at 7 MPH (6 KT):0
Visibility: 7 mile(s):0
Sky conditions: clear
Temperature: 9.9 F (-12.3 C)
Windchill: 0 F (-18 C):1
Dew Point: 7.3 F (-13.7 C)
Relative Humidity: 89%
Pressure (altimeter): 30.28 in. Hg (1025 hPa)
ob: KSYN 100215Z AUTO 22006KT 7SM CLR M12/M14 A3028 RMK AO2 T11231137
cycle: 2

Station Type Date Time Source
KSYN TAF UTC NOAA

Error!


Example: see airport list